sensor_id;sensor_type;location;lat;lon;timestamp;P1;durP1;ratioP1;P2;durP2;ratioP2
60306;SDS011;46155;52.364;6.580;2023-02-15T04:01:37;37.73;;;25.50;;
60306;SDS011;46155;52.364;6.580;2023-02-15T04:04:25;41.67;;;24.47;;
60306;SDS011;46155;52.364;6.580;2023-02-15T04:06:59;37.00;;;25.30;;
60306;SDS011;46155;52.364;6.580;2023-02-15T04:09:25;39.83;;;26.87;;
60306;SDS011;46155;52.364;6.580;2023-02-15T04:12:08;44.23;;;27.30;;
60306;SDS011;46155;52.364;6.580;2023-02-15T04:14:34;42.37;;;27.63;;
60306;SDS011;46155;52.364;6.580;2023-02-15T04:17:18;45.93;;;28.43;;
60306;SDS011;46155;52.364;6.580;2023-02-15T04:19:43;43.80;;;28.97;;
60306;SDS011;46155;52.364;6.580;2023-02-15T04:22:27;44.83;;;29.23;;
60306;SDS011;46155;52.364;6.580;2023-02-15T04:25:11;44.43;;;28.37;;
60306;SDS011;46155;52.364;6.580;2023-02-15T04:27:43;50.37;;;29.57;;
60306;SDS011;46155;52.364;6.580;2023-02-15T04:30:11;42.23;;;29.97;;
60306;SDS011;46155;52.364;6.580;2023-02-15T04:32:37;39.87;;;28.23;;
60306;SDS011;46155;52.364;6.580;2023-02-15T04:35:04;48.00;;;28.43;;
60306;SDS011;46155;52.364;6.580;2023-02-15T04:37:30;52.00;;;31.47;;
60306;SDS011;46155;52.364;6.580;2023-02-15T04:39:56;49.40;;;28.40;;
60306;SDS011;46155;52.364;6.580;2023-02-15T04:42:23;41.40;;;32.70;;
60306;SDS011;46155;52.364;6.580;2023-02-15T04:44:50;45.13;;;28.77;;
60306;SDS011;46155;52.364;6.580;2023-02-15T04:47:15;45.17;;;25.20;;
60306;SDS011;46155;52.364;6.580;2023-02-15T04:49:41;44.30;;;29.57;;
60306;SDS011;46155;52.364;6.580;2023-02-15T04:52:06;46.40;;;27.70;;
60306;SDS011;46155;52.364;6.580;2023-02-15T04:54:31;47.23;;;29.23;;
60306;SDS011;46155;52.364;6.580;2023-02-15T04:56:57;40.80;;;29.77;;
60306;SDS011;46155;52.364;6.580;2023-02-15T04:59:22;43.27;;;30.10;;
60306;SDS011;46155;52.364;6.580;2023-02-15T05:01:47;41.90;;;30.13;;
60306;SDS011;46155;52.364;6.580;2023-02-15T05:04:13;45.63;;;29.93;;
60306;SDS011;46155;52.364;6.580;2023-02-15T05:06:38;50.00;;;30.40;;
60306;SDS011;46155;52.364;6.580;2023-02-15T05:09:03;39.70;;;27.80;;
60306;SDS011;46155;52.364;6.580;2023-02-15T05:11:28;43.97;;;27.97;;
60306;SDS011;46155;52.364;6.580;2023-02-15T05:13:54;41.00;;;27.67;;
60306;SDS011;46155;52.364;6.580;2023-02-15T05:16:19;44.50;;;27.83;;
60306;SDS011;46155;52.364;6.580;2023-02-15T05:18:44;53.10;;;31.03;;
60306;SDS011;46155;52.364;6.580;2023-02-15T05:21:10;46.87;;;29.63;;
60306;SDS011;46155;52.364;6.580;2023-02-15T05:23:35;42.87;;;26.47;;
60306;SDS011;46155;52.364;6.580;2023-02-15T05:26:01;53.13;;;36.40;;
60306;SDS011;46155;52.364;6.580;2023-02-15T05:28:45;45.37;;;31.17;;
60306;SDS011;46155;52.364;6.580;2023-02-15T05:31:12;40.93;;;26.10;;
60306;SDS011;46155;52.364;6.580;2023-02-15T05:33:39;35.47;;;26.00;;
60306;SDS011;46155;52.364;6.580;2023-02-15T05:36:05;44.77;;;26.50;;
60306;SDS011;46155;52.364;6.580;2023-02-15T05:38:31;42.43;;;26.93;;
60306;SDS011;46155;52.364;6.580;2023-02-15T05:40:57;39.57;;;24.10;;
60306;SDS011;46155;52.364;6.580;2023-02-15T05:43:22;44.50;;;25.80;;
60306;SDS011;46155;52.364;6.580;2023-02-15T05:45:48;41.67;;;26.80;;
60306;SDS011;46155;52.364;6.580;2023-02-15T05:48:15;44.10;;;24.87;;
60306;SDS011;46155;52.364;6.580;2023-02-15T05:50:41;45.80;;;27.23;;
60306;SDS011;46155;52.364;6.580;2023-02-15T05:53:07;38.07;;;24.90;;
60306;SDS011;46155;52.364;6.580;2023-02-15T05:55:32;36.87;;;23.67;;
60306;SDS011;46155;52.364;6.580;2023-02-15T05:57:58;30.90;;;21.77;;
60306;SDS011;46155;52.364;6.580;2023-02-15T06:00:23;47.03;;;30.40;;
60306;SDS011;46155;52.364;6.580;2023-02-15T06:02:48;43.13;;;25.07;;
60306;SDS011;46155;52.364;6.580;2023-02-15T06:05:14;41.73;;;27.87;;
60306;SDS011;46155;52.364;6.580;2023-02-15T06:07:42;36.57;;;24.97;;
60306;SDS011;46155;52.364;6.580;2023-02-15T06:10:08;46.17;;;25.00;;
60306;SDS011;46155;52.364;6.580;2023-02-15T06:12:34;39.10;;;25.73;;
60306;SDS011;46155;52.364;6.580;2023-02-15T06:14:59;34.77;;;26.67;;
60306;SDS011;46155;52.364;6.580;2023-02-15T06:17:24;41.23;;;26.60;;
60306;SDS011;46155;52.364;6.580;2023-02-15T06:19:49;41.17;;;27.53;;
60306;SDS011;46155;52.364;6.580;2023-02-15T06:22:15;39.50;;;27.30;;
60306;SDS011;46155;52.364;6.580;2023-02-15T06:24:40;42.17;;;27.17;;
60306;SDS011;46155;52.364;6.580;2023-02-15T06:27:07;36.13;;;24.80;;
60306;SDS011;46155;52.364;6.580;2023-02-15T06:29:34;44.90;;;26.80;;
60306;SDS011;46155;52.364;6.580;2023-02-15T06:31:59;38.20;;;28.03;;
60306;SDS011;46155;52.364;6.580;2023-02-15T06:34:25;51.27;;;32.20;;
60306;SDS011;46155;52.364;6.580;2023-02-15T06:36:50;37.67;;;28.27;;
60306;SDS011;46155;52.364;6.580;2023-02-15T06:39:15;38.10;;;29.13;;
60306;SDS011;46155;52.364;6.580;2023-02-15T06:41:41;44.80;;;28.73;;
60306;SDS011;46155;52.364;6.580;2023-02-15T06:44:06;45.43;;;26.50;;
60306;SDS011;46155;52.364;6.580;2023-02-15T06:46:32;40.60;;;23.87;;
60306;SDS011;46155;52.364;6.580;2023-02-15T06:48:57;42.83;;;24.13;;
60306;SDS011;46155;52.364;6.580;2023-02-15T06:51:22;39.53;;;23.60;;
60306;SDS011;46155;52.364;6.580;2023-02-15T06:53:47;42.10;;;24.53;;
60306;SDS011;46155;52.364;6.580;2023-02-15T06:56:13;44.97;;;23.17;;
60306;SDS011;46155;52.364;6.580;2023-02-15T06:58:38;41.70;;;23.53;;
60306;SDS011;46155;52.364;6.580;2023-02-15T07:01:05;41.57;;;22.80;;
60306;SDS011;46155;52.364;6.580;2023-02-15T07:03:31;38.70;;;22.27;;
60306;SDS011;46155;52.364;6.580;2023-02-15T07:05:57;42.03;;;23.20;;
60306;SDS011;46155;52.364;6.580;2023-02-15T07:08:24;40.50;;;23.63;;
60306;SDS011;46155;52.364;6.580;2023-02-15T07:10:51;51.67;;;25.20;;
60306;SDS011;46155;52.364;6.580;2023-02-15T07:13:17;33.43;;;21.23;;
60306;SDS011;46155;52.364;6.580;2023-02-15T07:15:42;40.37;;;24.53;;
60306;SDS011;46155;52.364;6.580;2023-02-15T07:18:08;50.30;;;27.83;;
60306;SDS011;46155;52.364;6.580;2023-02-15T07:20:35;44.20;;;26.27;;
60306;SDS011;46155;52.364;6.580;2023-02-15T07:23:01;45.50;;;24.63;;
60306;SDS011;46155;52.364;6.580;2023-02-15T07:25:27;41.43;;;25.30;;
60306;SDS011;46155;52.364;6.580;2023-02-15T07:28:02;41.73;;;25.47;;
60306;SDS011;46155;52.364;6.580;2023-02-15T07:30:29;44.07;;;25.80;;
60306;SDS011;46155;52.364;6.580;2023-02-15T07:32:55;43.37;;;26.43;;
60306;SDS011;46155;52.364;6.580;2023-02-15T07:35:45;45.77;;;28.00;;
60306;SDS011;46155;52.364;6.580;2023-02-15T07:38:15;40.87;;;27.13;;
60306;SDS011;46155;52.364;6.580;2023-02-15T07:40:40;44.50;;;27.70;;
60306;SDS011;46155;52.364;6.580;2023-02-15T07:43:06;46.13;;;27.20;;
60306;SDS011;46155;52.364;6.580;2023-02-15T07:45:31;44.53;;;25.80;;
60306;SDS011;46155;52.364;6.580;2023-02-15T07:47:56;44.83;;;28.57;;
60306;SDS011;46155;52.364;6.580;2023-02-15T07:50:21;52.27;;;29.00;;
60306;SDS011;46155;52.364;6.580;2023-02-15T07:52:47;47.23;;;28.30;;
60306;SDS011;46155;52.364;6.580;2023-02-15T07:55:12;45.70;;;28.03;;
60306;SDS011;46155;52.364;6.580;2023-02-15T07:57:48;46.43;;;28.10;;
60306;SDS011;46155;52.364;6.580;2023-02-15T08:00:15;47.77;;;29.27;;
60306;SDS011;46155;52.364;6.580;2023-02-15T08:02:42;45.10;;;26.37;;
60306;SDS011;46155;52.364;6.580;2023-02-15T08:05:12;51.77;;;27.13;;
60306;SDS011;46155;52.364;6.580;2023-02-15T08:07:37;49.37;;;29.20;;
60306;SDS011;46155;52.364;6.580;2023-02-15T08:10:03;44.73;;;28.93;;
60306;SDS011;46155;52.364;6.580;2023-02-15T08:12:28;51.63;;;28.47;;
60306;SDS011;46155;52.364;6.580;2023-02-15T08:14:54;57.80;;;28.47;;
60306;SDS011;46155;52.364;6.580;2023-02-15T08:17:19;44.17;;;25.23;;
60306;SDS011;46155;52.364;6.580;2023-02-15T08:19:45;50.93;;;27.57;;
60306;SDS011;46155;52.364;6.580;2023-02-15T08:22:12;39.50;;;24.80;;
60306;SDS011;46155;52.364;6.580;2023-02-15T08:24:38;40.53;;;24.70;;
60306;SDS011;46155;52.364;6.580;2023-02-15T08:27:05;53.30;;;25.97;;
60306;SDS011;46155;52.364;6.580;2023-02-15T08:29:32;52.13;;;26.93;;
60306;SDS011;46155;52.364;6.580;2023-02-15T08:32:00;47.20;;;23.87;;
60306;SDS011;46155;52.364;6.580;2023-02-15T08:34:32;49.03;;;25.23;;
60306;SDS011;46155;52.364;6.580;2023-02-15T08:37:00;51.90;;;25.97;;
60306;SDS011;46155;52.364;6.580;2023-02-15T08:39:25;39.83;;;24.17;;
60306;SDS011;46155;52.364;6.580;2023-02-15T08:41:51;54.83;;;28.07;;
60306;SDS011;46155;52.364;6.580;2023-02-15T08:44:18;40.17;;;22.37;;
60306;SDS011;46155;52.364;6.580;2023-02-15T08:46:45;45.63;;;23.63;;
60306;SDS011;46155;52.364;6.580;2023-02-15T08:49:12;45.40;;;24.93;;
60306;SDS011;46155;52.364;6.580;2023-02-15T08:51:41;45.27;;;24.83;;
60306;SDS011;46155;52.364;6.580;2023-02-15T08:54:09;46.63;;;25.03;;
60306;SDS011;46155;52.364;6.580;2023-02-15T08:56:37;47.97;;;24.43;;
60306;SDS011;46155;52.364;6.580;2023-02-15T08:59:04;43.10;;;23.93;;
60306;SDS011;46155;52.364;6.580;2023-02-15T09:01:31;46.20;;;24.17;;
60306;SDS011;46155;52.364;6.580;2023-02-15T09:03:59;43.63;;;24.17;;
60306;SDS011;46155;52.364;6.580;2023-02-15T09:06:26;49.60;;;23.60;;
60306;SDS011;46155;52.364;6.580;2023-02-15T09:08:53;41.90;;;22.37;;
60306;SDS011;46155;52.364;6.580;2023-02-15T09:11:23;44.27;;;24.97;;
60306;SDS011;46155;52.364;6.580;2023-02-15T09:16:33;46.37;;;24.13;;
60306;SDS011;46155;52.364;6.580;2023-02-15T09:19:00;49.60;;;23.37;;
60306;SDS011;46155;52.364;6.580;2023-02-15T09:21:32;44.07;;;22.77;;
60306;SDS011;46155;52.364;6.580;2023-02-15T09:24:01;41.97;;;22.70;;
60306;SDS011;46155;52.364;6.580;2023-02-15T09:26:31;42.37;;;23.23;;
60306;SDS011;46155;52.364;6.580;2023-02-15T09:28:59;48.93;;;24.43;;
60306;SDS011;46155;52.364;6.580;2023-02-15T09:31:49;36.97;;;21.23;;
60306;SDS011;46155;52.364;6.580;2023-02-15T09:34:16;44.03;;;23.43;;
60306;SDS011;46155;52.364;6.580;2023-02-15T09:36:43;45.60;;;21.87;;
60306;SDS011;46155;52.364;6.580;2023-02-15T09:39:17;39.53;;;23.70;;
60306;SDS011;46155;52.364;6.580;2023-02-15T09:48:08;48.03;;;24.93;;
60306;SDS011;46155;52.364;6.580;2023-02-15T09:50:34;39.63;;;21.73;;
60306;SDS011;46155;52.364;6.580;2023-02-15T09:53:31;39.87;;;21.20;;
60306;SDS011;46155;52.364;6.580;2023-02-15T09:58:57;42.27;;;23.10;;
60306;SDS011;46155;52.364;6.580;2023-02-15T10:04:41;44.40;;;22.17;;
60306;SDS011;46155;52.364;6.580;2023-02-15T10:17:59;47.33;;;23.50;;
60306;SDS011;46155;52.364;6.580;2023-02-15T10:23:43;42.13;;;21.63;;
60306;SDS011;46155;52.364;6.580;2023-02-15T10:29:09;45.60;;;23.97;;
60306;SDS011;46155;52.364;6.580;2023-02-15T10:31:51;47.73;;;25.53;;
60306;SDS011;46155;52.364;6.580;2023-02-15T10:34:31;42.27;;;22.67;;
60306;SDS011;46155;52.364;6.580;2023-02-15T10:39:43;41.53;;;22.97;;
60306;SDS011;46155;52.364;6.580;2023-02-15T10:42:22;43.27;;;23.67;;
60306;SDS011;46155;52.364;6.580;2023-02-15T10:50:29;47.80;;;23.60;;
60306;SDS011;46155;52.364;6.580;2023-02-15T10:53:12;42.50;;;20.73;;
60306;SDS011;46155;52.364;6.580;2023-02-15T10:55:51;37.87;;;22.23;;
60306;SDS011;46155;52.364;6.580;2023-02-15T11:01:32;49.80;;;22.90;;
60306;SDS011;46155;52.364;6.580;2023-02-15T11:07:19;43.40;;;21.63;;
60306;SDS011;46155;52.364;6.580;2023-02-15T11:09:50;41.60;;;21.40;;
60306;SDS011;46155;52.364;6.580;2023-02-15T11:12:22;53.27;;;23.10;;
60306;SDS011;46155;52.364;6.580;2023-02-15T11:15:09;44.23;;;22.07;;
60306;SDS011;46155;52.364;6.580;2023-02-15T11:17:43;47.67;;;23.87;;
60306;SDS011;46155;52.364;6.580;2023-02-15T11:22:50;43.07;;;22.83;;
60306;SDS011;46155;52.364;6.580;2023-02-15T11:25:28;40.37;;;22.97;;
60306;SDS011;46155;52.364;6.580;2023-02-15T11:27:56;42.77;;;22.93;;
60306;SDS011;46155;52.364;6.580;2023-02-15T11:30:26;39.10;;;22.63;;
60306;SDS011;46155;52.364;6.580;2023-02-15T11:32:59;47.37;;;23.53;;
60306;SDS011;46155;52.364;6.580;2023-02-15T11:35:28;45.23;;;21.60;;
60306;SDS011;46155;52.364;6.580;2023-02-15T11:38:31;42.77;;;20.53;;
60306;SDS011;46155;52.364;6.580;2023-02-15T11:41:11;46.40;;;21.17;;
60306;SDS011;46155;52.364;6.580;2023-02-15T11:43:43;43.93;;;21.87;;
60306;SDS011;46155;52.364;6.580;2023-02-15T11:46:15;42.40;;;21.43;;
60306;SDS011;46155;52.364;6.580;2023-02-15T11:48:40;43.73;;;22.83;;
60306;SDS011;46155;52.364;6.580;2023-02-15T11:51:20;43.90;;;23.37;;
60306;SDS011;46155;52.364;6.580;2023-02-15T11:53:47;42.23;;;21.07;;
60306;SDS011;46155;52.364;6.580;2023-02-15T11:56:17;47.67;;;22.27;;
60306;SDS011;46155;52.364;6.580;2023-02-15T11:58:53;42.77;;;20.23;;
60306;SDS011;46155;52.364;6.580;2023-02-15T12:04:04;44.40;;;21.20;;
60306;SDS011;46155;52.364;6.580;2023-02-15T12:06:45;54.30;;;21.40;;
60306;SDS011;46155;52.364;6.580;2023-02-15T12:14:54;41.07;;;21.37;;
60306;SDS011;46155;52.364;6.580;2023-02-15T12:17:24;41.13;;;20.87;;
60306;SDS011;46155;52.364;6.580;2023-02-15T12:19:52;43.50;;;20.60;;
60306;SDS011;46155;52.364;6.580;2023-02-15T12:22:22;42.40;;;20.23;;
60306;SDS011;46155;52.364;6.580;2023-02-15T12:24:50;40.63;;;20.53;;
60306;SDS011;46155;52.364;6.580;2023-02-15T12:27:19;41.60;;;20.00;;
60306;SDS011;46155;52.364;6.580;2023-02-15T12:29:49;44.10;;;21.37;;
60306;SDS011;46155;52.364;6.580;2023-02-15T12:32:56;48.33;;;20.83;;
60306;SDS011;46155;52.364;6.580;2023-02-15T12:35:25;44.07;;;20.27;;
60306;SDS011;46155;52.364;6.580;2023-02-15T12:37:54;38.23;;;19.67;;
60306;SDS011;46155;52.364;6.580;2023-02-15T12:40:23;33.93;;;19.10;;
60306;SDS011;46155;52.364;6.580;2023-02-15T12:42:52;41.57;;;19.17;;
60306;SDS011;46155;52.364;6.580;2023-02-15T12:45:31;40.53;;;19.53;;
60306;SDS011;46155;52.364;6.580;2023-02-15T12:50:49;33.70;;;18.17;;
60306;SDS011;46155;52.364;6.580;2023-02-15T12:53:20;37.17;;;17.53;;
60306;SDS011;46155;52.364;6.580;2023-02-15T12:58:22;31.67;;;17.60;;
60306;SDS011;46155;52.364;6.580;2023-02-15T13:03:33;40.20;;;18.67;;
60306;SDS011;46155;52.364;6.580;2023-02-15T13:06:00;34.67;;;17.77;;
60306;SDS011;46155;52.364;6.580;2023-02-15T13:08:33;38.83;;;18.23;;
60306;SDS011;46155;52.364;6.580;2023-02-15T13:11:09;42.80;;;18.87;;
60306;SDS011;46155;52.364;6.580;2023-02-15T13:13:45;33.17;;;18.17;;
60306;SDS011;46155;52.364;6.580;2023-02-15T13:16:16;41.17;;;18.97;;
60306;SDS011;46155;52.364;6.580;2023-02-15T13:18:49;40.00;;;18.43;;
60306;SDS011;46155;52.364;6.580;2023-02-15T13:21:31;42.50;;;19.77;;
60306;SDS011;46155;52.364;6.580;2023-02-15T13:24:02;38.50;;;19.40;;
60306;SDS011;46155;52.364;6.580;2023-02-15T13:26:32;36.27;;;18.57;;
60306;SDS011;46155;52.364;6.580;2023-02-15T13:29:00;35.37;;;17.53;;
60306;SDS011;46155;52.364;6.580;2023-02-15T13:31:36;37.33;;;18.17;;
60306;SDS011;46155;52.364;6.580;2023-02-15T13:37:05;37.23;;;18.53;;
60306;SDS011;46155;52.364;6.580;2023-02-15T13:39:54;41.60;;;18.77;;
60306;SDS011;46155;52.364;6.580;2023-02-15T13:42:32;38.17;;;18.03;;
60306;SDS011;46155;52.364;6.580;2023-02-15T13:48:12;37.73;;;20.03;;
60306;SDS011;46155;52.364;6.580;2023-02-15T13:58:56;39.93;;;18.07;;
60306;SDS011;46155;52.364;6.580;2023-02-15T14:01:44;34.40;;;18.53;;
60306;SDS011;46155;52.364;6.580;2023-02-15T14:15:08;39.63;;;19.10;;
60306;SDS011;46155;52.364;6.580;2023-02-15T14:17:53;43.40;;;19.30;;
60306;SDS011;46155;52.364;6.580;2023-02-15T14:20:50;39.87;;;19.30;;
60306;SDS011;46155;52.364;6.580;2023-02-15T14:29:28;39.43;;;19.53;;
60306;SDS011;46155;52.364;6.580;2023-02-15T14:35:05;45.80;;;21.10;;
60306;SDS011;46155;52.364;6.580;2023-02-15T14:41:02;44.47;;;19.90;;
60306;SDS011;46155;52.364;6.580;2023-02-15T14:56:43;42.77;;;20.43;;
60306;SDS011;46155;52.364;6.580;2023-02-15T14:59:21;43.07;;;19.67;;
60306;SDS011;46155;52.364;6.580;2023-02-15T15:01:52;41.67;;;20.50;;
60306;SDS011;46155;52.364;6.580;2023-02-15T15:04:35;49.17;;;20.17;;
60306;SDS011;46155;52.364;6.580;2023-02-15T15:07:17;39.33;;;18.63;;
60306;SDS011;46155;52.364;6.580;2023-02-15T15:09:48;39.10;;;20.43;;
60306;SDS011;46155;52.364;6.580;2023-02-15T15:14:50;42.33;;;20.47;;
60306;SDS011;46155;52.364;6.580;2023-02-15T15:20:04;37.20;;;19.60;;
60306;SDS011;46155;52.364;6.580;2023-02-15T15:22:32;42.77;;;20.07;;
60306;SDS011;46155;52.364;6.580;2023-02-15T15:24:59;38.63;;;21.70;;
60306;SDS011;46155;52.364;6.580;2023-02-15T15:32:48;37.63;;;20.03;;
60306;SDS011;46155;52.364;6.580;2023-02-15T15:35:27;39.93;;;21.30;;
60306;SDS011;46155;52.364;6.580;2023-02-15T15:38:17;49.03;;;25.60;;
60306;SDS011;46155;52.364;6.580;2023-02-15T15:43:50;41.83;;;23.37;;
60306;SDS011;46155;52.364;6.580;2023-02-15T15:46:28;44.67;;;21.07;;
60306;SDS011;46155;52.364;6.580;2023-02-15T15:49:02;43.83;;;20.60;;
60306;SDS011;46155;52.364;6.580;2023-02-15T15:51:33;37.90;;;19.80;;
60306;SDS011;46155;52.364;6.580;2023-02-15T15:54:01;46.37;;;21.40;;
60306;SDS011;46155;52.364;6.580;2023-02-15T15:56:28;36.83;;;20.10;;
60306;SDS011;46155;52.364;6.580;2023-02-15T15:59:00;42.43;;;19.63;;
60306;SDS011;46155;52.364;6.580;2023-02-15T16:01:30;59.00;;;21.50;;
60306;SDS011;46155;52.364;6.580;2023-02-15T16:04:00;42.97;;;22.83;;
60306;SDS011;46155;52.364;6.580;2023-02-15T16:11:38;44.13;;;21.23;;
60306;SDS011;46155;52.364;6.580;2023-02-15T16:14:09;39.30;;;20.40;;
60306;SDS011;46155;52.364;6.580;2023-02-15T16:16:37;38.90;;;20.53;;
60306;SDS011;46155;52.364;6.580;2023-02-15T16:19:02;35.77;;;19.80;;
60306;SDS011;46155;52.364;6.580;2023-02-15T16:21:29;38.77;;;19.47;;
60306;SDS011;46155;52.364;6.580;2023-02-15T16:26:53;38.40;;;20.10;;
60306;SDS011;46155;52.364;6.580;2023-02-15T16:29:34;40.70;;;20.50;;
60306;SDS011;46155;52.364;6.580;2023-02-15T16:32:01;40.97;;;21.97;;
60306;SDS011;46155;52.364;6.580;2023-02-15T16:34:31;42.40;;;20.43;;
60306;SDS011;46155;52.364;6.580;2023-02-15T16:39:58;40.50;;;20.70;;
60306;SDS011;46155;52.364;6.580;2023-02-15T16:42:24;43.73;;;22.33;;
60306;SDS011;46155;52.364;6.580;2023-02-15T16:47:48;46.03;;;22.03;;
60306;SDS011;46155;52.364;6.580;2023-02-15T16:50:19;44.23;;;23.10;;
60306;SDS011;46155;52.364;6.580;2023-02-15T16:52:47;50.57;;;26.33;;
60306;SDS011;46155;52.364;6.580;2023-02-15T16:55:23;78.97;;;34.03;;
60306;SDS011;46155;52.364;6.580;2023-02-15T16:57:50;66.83;;;31.93;;
60306;SDS011;46155;52.364;6.580;2023-02-15T17:00:24;95.47;;;41.77;;
60306;SDS011;46155;52.364;6.580;2023-02-15T17:03:00;115.87;;;44.73;;
60306;SDS011;46155;52.364;6.580;2023-02-15T17:05:30;61.03;;;29.53;;
60306;SDS011;46155;52.364;6.580;2023-02-15T17:10:35;42.40;;;24.83;;
60306;SDS011;46155;52.364;6.580;2023-02-15T17:13:03;47.57;;;24.63;;
60306;SDS011;46155;52.364;6.580;2023-02-15T17:15:37;48.27;;;23.50;;
60306;SDS011;46155;52.364;6.580;2023-02-15T17:18:05;45.17;;;23.83;;
60306;SDS011;46155;52.364;6.580;2023-02-15T17:20:40;46.37;;;24.30;;
60306;SDS011;46155;52.364;6.580;2023-02-15T17:23:16;48.47;;;24.27;;
60306;SDS011;46155;52.364;6.580;2023-02-15T17:25:47;45.83;;;24.63;;
60306;SDS011;46155;52.364;6.580;2023-02-15T17:28:19;46.93;;;23.63;;
60306;SDS011;46155;52.364;6.580;2023-02-15T17:30:47;41.33;;;23.30;;
60306;SDS011;46155;52.364;6.580;2023-02-15T17:33:20;45.57;;;21.83;;
60306;SDS011;46155;52.364;6.580;2023-02-15T17:38:30;44.17;;;23.03;;
60306;SDS011;46155;52.364;6.580;2023-02-15T17:40:56;40.97;;;21.27;;
60306;SDS011;46155;52.364;6.580;2023-02-15T17:43:23;48.27;;;22.93;;
60306;SDS011;46155;52.364;6.580;2023-02-15T17:45:49;51.23;;;25.27;;
60306;SDS011;46155;52.364;6.580;2023-02-15T17:48:37;44.17;;;23.00;;
60306;SDS011;46155;52.364;6.580;2023-02-15T17:51:03;40.60;;;24.27;;
60306;SDS011;46155;52.364;6.580;2023-02-15T17:53:30;46.27;;;24.80;;
60306;SDS011;46155;52.364;6.580;2023-02-15T17:55:56;50.43;;;24.17;;
60306;SDS011;46155;52.364;6.580;2023-02-15T17:58:21;47.47;;;25.53;;
60306;SDS011;46155;52.364;6.580;2023-02-15T18:00:48;52.13;;;25.53;;
60306;SDS011;46155;52.364;6.580;2023-02-15T18:06:22;46.87;;;25.73;;
60306;SDS011;46155;52.364;6.580;2023-02-15T18:09:11;48.07;;;24.80;;
60306;SDS011;46155;52.364;6.580;2023-02-15T18:11:59;46.97;;;24.17;;
60306;SDS011;46155;52.364;6.580;2023-02-15T18:14:24;53.63;;;25.20;;
60306;SDS011;46155;52.364;6.580;2023-02-15T18:16:50;38.40;;;22.13;;
60306;SDS011;46155;52.364;6.580;2023-02-15T18:19:23;43.00;;;24.47;;
60306;SDS011;46155;52.364;6.580;2023-02-15T18:21:50;44.53;;;23.23;;
60306;SDS011;46155;52.364;6.580;2023-02-15T18:24:18;38.93;;;22.47;;
60306;SDS011;46155;52.364;6.580;2023-02-15T18:26:44;42.57;;;22.43;;
60306;SDS011;46155;52.364;6.580;2023-02-15T18:29:10;40.67;;;22.70;;
60306;SDS011;46155;52.364;6.580;2023-02-15T18:31:35;45.70;;;24.03;;
60306;SDS011;46155;52.364;6.580;2023-02-15T18:34:01;45.20;;;22.77;;
60306;SDS011;46155;52.364;6.580;2023-02-15T18:38:57;43.13;;;24.07;;
60306;SDS011;46155;52.364;6.580;2023-02-15T18:41:24;38.73;;;23.37;;
60306;SDS011;46155;52.364;6.580;2023-02-15T18:43:50;41.87;;;23.03;;
60306;SDS011;46155;52.364;6.580;2023-02-15T18:46:17;42.50;;;23.13;;
60306;SDS011;46155;52.364;6.580;2023-02-15T18:48:44;37.90;;;21.40;;
60306;SDS011;46155;52.364;6.580;2023-02-15T18:51:17;45.87;;;23.43;;
60306;SDS011;46155;52.364;6.580;2023-02-15T18:53:45;45.07;;;22.63;;
60306;SDS011;46155;52.364;6.580;2023-02-15T18:56:15;47.57;;;25.13;;
60306;SDS011;46155;52.364;6.580;2023-02-15T18:58:43;44.33;;;25.80;;
60306;SDS011;46155;52.364;6.580;2023-02-15T19:01:15;38.30;;;24.07;;
60306;SDS011;46155;52.364;6.580;2023-02-15T19:03:44;38.53;;;24.47;;
60306;SDS011;46155;52.364;6.580;2023-02-15T19:06:17;51.57;;;26.70;;
60306;SDS011;46155;52.364;6.580;2023-02-15T19:08:45;66.50;;;29.80;;
60306;SDS011;46155;52.364;6.580;2023-02-15T19:11:14;54.73;;;31.97;;
60306;SDS011;46155;52.364;6.580;2023-02-15T19:13:42;53.23;;;28.57;;
60306;SDS011;46155;52.364;6.580;2023-02-15T19:16:11;51.47;;;26.63;;
60306;SDS011;46155;52.364;6.580;2023-02-15T19:18:54;53.10;;;30.80;;
60306;SDS011;46155;52.364;6.580;2023-02-15T19:21:19;54.90;;;27.97;;
60306;SDS011;46155;52.364;6.580;2023-02-15T19:23:47;63.83;;;34.93;;
60306;SDS011;46155;52.364;6.580;2023-02-15T19:26:17;72.20;;;35.07;;
60306;SDS011;46155;52.364;6.580;2023-02-15T19:28:43;66.63;;;33.17;;
60306;SDS011;46155;52.364;6.580;2023-02-15T19:31:12;58.20;;;32.77;;
60306;SDS011;46155;52.364;6.580;2023-02-15T19:33:37;51.93;;;29.63;;
60306;SDS011;46155;52.364;6.580;2023-02-15T19:36:03;44.17;;;27.43;;
60306;SDS011;46155;52.364;6.580;2023-02-15T19:38:31;49.93;;;27.73;;
60306;SDS011;46155;52.364;6.580;2023-02-15T19:41:01;50.50;;;26.60;;
60306;SDS011;46155;52.364;6.580;2023-02-15T19:43:30;42.00;;;23.97;;
60306;SDS011;46155;52.364;6.580;2023-02-15T19:45:56;45.97;;;26.37;;
60306;SDS011;46155;52.364;6.580;2023-02-15T19:48:21;46.10;;;26.40;;
60306;SDS011;46155;52.364;6.580;2023-02-15T19:50:46;45.37;;;24.17;;
60306;SDS011;46155;52.364;6.580;2023-02-15T19:53:24;44.37;;;25.90;;
60306;SDS011;46155;52.364;6.580;2023-02-15T19:55:51;46.17;;;25.53;;
60306;SDS011;46155;52.364;6.580;2023-02-15T19:58:17;44.50;;;24.63;;
60306;SDS011;46155;52.364;6.580;2023-02-15T20:00:43;53.47;;;27.73;;
60306;SDS011;46155;52.364;6.580;2023-02-15T20:03:10;59.10;;;28.60;;
60306;SDS011;46155;52.364;6.580;2023-02-15T20:05:35;49.77;;;26.17;;
60306;SDS011;46155;52.364;6.580;2023-02-15T20:08:02;54.27;;;29.00;;
60306;SDS011;46155;52.364;6.580;2023-02-15T20:10:32;52.50;;;28.57;;
60306;SDS011;46155;52.364;6.580;2023-02-15T20:12:58;55.60;;;26.57;;
60306;SDS011;46155;52.364;6.580;2023-02-15T20:15:25;51.80;;;26.17;;
60306;SDS011;46155;52.364;6.580;2023-02-15T20:17:52;51.23;;;26.00;;
60306;SDS011;46155;52.364;6.580;2023-02-15T20:20:18;54.13;;;27.50;;
60306;SDS011;46155;52.364;6.580;2023-02-15T20:22:45;47.97;;;27.77;;
60306;SDS011;46155;52.364;6.580;2023-02-15T20:25:12;55.87;;;28.57;;
60306;SDS011;46155;52.364;6.580;2023-02-15T20:27:49;49.30;;;28.67;;
60306;SDS011;46155;52.364;6.580;2023-02-15T20:30:15;51.37;;;27.33;;
60306;SDS011;46155;52.364;6.580;2023-02-15T20:32:51;46.80;;;26.30;;
60306;SDS011;46155;52.364;6.580;2023-02-15T20:35:18;49.77;;;27.47;;
60306;SDS011;46155;52.364;6.580;2023-02-15T20:37:46;50.37;;;26.93;;
60306;SDS011;46155;52.364;6.580;2023-02-15T20:42:39;59.87;;;28.50;;
60306;SDS011;46155;52.364;6.580;2023-02-15T20:45:24;52.33;;;28.13;;
60306;SDS011;46155;52.364;6.580;2023-02-15T20:47:51;49.77;;;27.17;;
60306;SDS011;46155;52.364;6.580;2023-02-15T20:50:18;61.47;;;29.20;;
60306;SDS011;46155;52.364;6.580;2023-02-15T20:52:48;59.17;;;27.97;;
60306;SDS011;46155;52.364;6.580;2023-02-15T20:55:17;54.13;;;27.47;;
60306;SDS011;46155;52.364;6.580;2023-02-15T20:57:50;64.67;;;29.40;;
60306;SDS011;46155;52.364;6.580;2023-02-15T21:00:19;52.87;;;27.27;;
60306;SDS011;46155;52.364;6.580;2023-02-15T21:02:48;50.47;;;27.27;;
60306;SDS011;46155;52.364;6.580;2023-02-15T21:05:19;48.67;;;28.37;;
60306;SDS011;46155;52.364;6.580;2023-02-15T21:07:46;50.47;;;27.10;;
60306;SDS011;46155;52.364;6.580;2023-02-15T21:10:30;46.80;;;25.97;;
60306;SDS011;46155;52.364;6.580;2023-02-15T21:12:58;41.77;;;25.70;;
60306;SDS011;46155;52.364;6.580;2023-02-15T21:15:29;53.23;;;26.40;;